Time;durP1;ratioP1;P1;durP2;ratioP2;P2;SDS_P1;SDS_P2;PMS_P1;PMS_P2;Temp;Humidity;BMP_temperature;BMP_pressure;BME280_temperature;BME280_humidity;BME280_pressure;Samples;Min_cycle;Max_cycle;Signal;HPM_P1;HPM_P2
2021/12/02 00:01:30;;;;;;;11.55;6.55;;;6.50;99.90;;;;;;10462131;28;20053;-62
2021/12/02 00:06:39;;;;;;;7.80;5.50;;;6.60;99.90;;;;;;10462276;28;20049;-62
2021/12/02 00:11:44;;;;;;;8.02;4.93;;;6.60;99.90;;;;;;10461469;28;20158;-62
2021/12/02 00:22:04;;;;;;;11.68;6.47;;;6.50;99.90;;;;;;10461479;28;20497;-62
2021/12/02 00:27:10;;;;;;;11.15;6.50;;;6.50;99.90;;;;;;10459679;28;20091;-62
2021/12/02 00:32:18;;;;;;;12.53;7.77;;;6.40;99.90;;;;;;10460760;28;20049;-62
2021/12/02 00:37:27;;;;;;;21.23;10.83;;;6.40;99.90;;;;;;10460630;28;20049;-62
2021/12/02 00:42:35;;;;;;;9.85;6.55;;;6.40;99.90;;;;;;10461422;28;20040;-61
2021/12/02 00:47:40;;;;;;;8.82;6.45;;;6.30;99.90;;;;;;10460047;28;20048;-61
2021/12/02 00:52:46;;;;;;;18.70;8.80;;;6.20;99.90;;;;;;10459321;28;20460;-61
2021/12/02 00:57:55;;;;;;;14.07;6.10;;;6.00;99.90;;;;;;10459190;28;20045;-61
2021/12/02 01:03:06;;;;;;;6.10;3.00;;;6.00;99.90;;;;;;10459213;28;20045;-62
2021/12/02 01:08:14;;;;;;;11.77;4.22;;;6.00;99.90;;;;;;10460176;28;20045;-61
2021/12/02 01:13:19;;;;;;;17.60;6.60;;;6.00;99.90;;;;;;10458267;28;20052;-61
2021/12/02 01:18:28;;;;;;;5.57;2.78;;;6.10;99.90;;;;;;10458186;28;20409;-61
2021/12/02 01:23:36;;;;;;;7.38;2.80;;;6.00;99.90;;;;;;10458268;28;20421;-61
2021/12/02 01:28:42;;;;;;;2.38;1.65;;;5.90;99.90;;;;;;10458134;28;20041;-61
2021/12/02 01:33:47;;;;;;;6.82;2.00;;;5.90;99.90;;;;;;10458694;28;20036;-61
2021/12/02 01:38:55;;;;;;;4.20;1.20;;;6.00;99.90;;;;;;10457482;28;20053;-60
2021/12/02 01:44:03;;;;;;;3.83;1.73;;;6.10;99.90;;;;;;10457380;28;20049;-61
2021/12/02 01:49:15;;;;;;;3.80;1.23;;;6.10;99.90;;;;;;10457671;28;20041;-61
2021/12/02 01:54:24;;;;;;;2.67;0.90;;;6.10;99.90;;;;;;10457008;28;20102;-61
2021/12/02 01:59:34;;;;;;;3.72;1.60;;;6.10;99.90;;;;;;10457221;28;20048;-61
2021/12/02 02:04:39;;;;;;;22.40;4.35;;;6.10;99.90;;;;;;10422142;28;20052;-61
2021/12/02 02:09:44;;;;;;;2.55;0.80;;;6.10;99.90;;;;;;10457014;28;20555;-61
2021/12/02 02:14:50;;;;;;;8.65;1.75;;;6.10;99.90;;;;;;10438600;28;20422;-61
2021/12/02 02:19:59;;;;;;;3.88;1.70;;;6.00;99.90;;;;;;10456853;28;20493;-62
2021/12/02 02:25:13;;;;;;;7.25;2.03;;;6.00;99.90;;;;;;10457153;28;20048;-62
2021/12/02 02:30:18;;;;;;;10.35;4.18;;;5.90;99.90;;;;;;10456545;28;20052;-62
2021/12/02 02:35:22;;;;;;;5.75;1.90;;;5.90;99.90;;;;;;10456390;28;20045;-62
2021/12/02 02:40:28;;;;;;;14.63;4.57;;;5.90;99.90;;;;;;10457177;28;20045;-62
2021/12/02 02:45:36;;;;;;;14.68;4.07;;;5.90;99.90;;;;;;10465838;28;20095;-62
2021/12/02 02:50:41;;;;;;;3.88;1.48;;;6.00;99.50;;;;;;10465903;28;20099;-62
2021/12/02 02:56:13;;;;;;;5.20;2.40;;;5.90;99.00;;;;;;10464408;28;20056;-61
2021/12/02 03:01:32;;;;;;;4.53;1.48;;;5.90;96.60;;;;;;10464413;28;20098;-62
2021/12/02 03:11:56;;;;;;;3.92;0.55;;;5.90;91.80;;;;;;10423219;28;20110;-62
2021/12/02 03:17:01;;;;;;;3.90;0.70;;;5.90;89.00;;;;;;10422494;28;20046;-61
2021/12/02 03:22:09;;;;;;;3.97;1.10;;;5.80;86.20;;;;;;10422227;28;20042;-61
2021/12/02 03:27:15;;;;;;;13.13;0.80;;;5.70;85.20;;;;;;10422032;28;20091;-61
2021/12/02 03:32:21;;;;;;;11.88;0.93;;;5.70;84.90;;;;;;10421558;28;20498;-61
2021/12/02 03:37:26;;;;;;;1.25;0.80;;;5.70;84.30;;;;;;10421948;28;20091;-61
2021/12/02 03:42:31;;;;;;;4.82;0.60;;;5.70;85.50;;;;;;10421862;28;20053;-61
2021/12/02 03:47:35;;;;;;;4.43;0.90;;;5.70;85.90;;;;;;10421175;28;20068;-61
2021/12/02 03:52:41;;;;;;;4.53;2.05;;;5.70;87.70;;;;;;10420441;28;20119;-61
2021/12/02 03:57:46;;;;;;;4.07;0.80;;;5.70;89.30;;;;;;10420220;28;20095;-61
2021/12/02 04:02:54;;;;;;;3.88;0.93;;;5.70;89.60;;;;;;10420916;28;20540;-60
2021/12/02 04:08:00;;;;;;;9.73;2.28;;;5.70;86.50;;;;;;10421422;28;20482;-61
2021/12/02 04:13:15;;;;;;;12.73;3.67;;;5.70;87.10;;;;;;10420289;28;20115;-61
2021/12/02 04:18:22;;;;;;;7.63;2.15;;;5.70;84.20;;;;;;10420073;28;20049;-61
2021/12/02 04:23:30;;;;;;;2.60;1.00;;;5.70;84.30;;;;;;10420054;28;20045;-61
2021/12/02 04:28:38;;;;;;;1.52;0.52;;;5.70;85.10;;;;;;10419802;28;20486;-61
2021/12/02 04:33:43;;;;;;;0.93;0.55;;;5.60;84.40;;;;;;10419961;28;20041;-61
2021/12/02 04:38:48;;;;;;;5.05;0.68;;;5.60;85.20;;;;;;10459990;28;20075;-62
2021/12/02 04:43:53;;;;;;;4.85;0.70;;;5.60;85.80;;;;;;10459724;28;20053;-61
2021/12/02 04:48:58;;;;;;;3.58;0.95;;;5.50;84.20;;;;;;10460101;28;20041;-61
2021/12/02 04:54:04;;;;;;;2.30;0.90;;;5.50;83.70;;;;;;10459378;28;20102;-61
2021/12/02 04:59:15;;;;;;;4.03;0.65;;;5.40;86.30;;;;;;10459000;28;20600;-62
2021/12/02 05:04:22;;;;;;;2.75;0.52;;;5.30;86.70;;;;;;10469601;28;20045;-61
2021/12/02 05:09:30;;;;;;;2.22;0.60;;;5.20;83.10;;;;;;10459155;28;20090;-61
2021/12/02 05:14:35;;;;;;;0.93;0.50;;;5.00;81.90;;;;;;10463216;28;20040;-61
2021/12/02 05:19:40;;;;;;;4.57;0.95;;;4.80;82.20;;;;;;10461498;28;20402;-61
2021/12/02 05:24:48;;;;;;;2.45;1.00;;;4.60;82.50;;;;;;10458519;28;20048;-61
2021/12/02 05:29:59;;;;;;;2.63;0.75;;;4.60;83.20;;;;;;10451021;28;20447;-61
2021/12/02 05:35:04;;;;;;;1.92;0.50;;;4.60;81.30;;;;;;10399820;28;20045;-61
2021/12/02 05:40:09;;;;;;;4.35;1.10;;;4.50;81.10;;;;;;10417125;28;20092;-61
2021/12/02 05:45:14;;;;;;;4.30;0.70;;;4.50;81.40;;;;;;10417459;28;20045;-61
2021/12/02 05:50:19;;;;;;;11.18;0.93;;;4.40;82.20;;;;;;10456079;28;20099;-61
2021/12/02 05:55:27;;;;;;;2.70;0.73;;;4.40;82.40;;;;;;10457523;28;20053;-61
2021/12/02 06:00:34;;;;;;;4.05;1.08;;;4.30;82.70;;;;;;10440299;28;20056;-61
2021/12/02 06:05:39;;;;;;;5.07;0.82;;;4.30;83.50;;;;;;10457157;28;20402;-61
2021/12/02 06:10:47;;;;;;;6.70;2.78;;;4.30;84.40;;;;;;10457653;28;20044;-61
2021/12/02 06:15:52;;;;;;;6.07;1.63;;;4.20;84.40;;;;;;10456204;28;20041;-61
2021/12/02 06:20:57;;;;;;;2.13;0.85;;;4.20;84.50;;;;;;10456698;28;20548;-61
2021/12/02 06:26:05;;;;;;;5.60;1.23;;;4.20;84.30;;;;;;10456455;28;20095;-61
2021/12/02 06:31:10;;;;;;;2.80;0.80;;;4.20;84.90;;;;;;10456576;28;20041;-61
2021/12/02 06:36:16;;;;;;;4.28;1.10;;;4.20;84.60;;;;;;10455786;28;20041;-61
2021/12/02 06:41:35;;;;;;;4.13;0.55;;;4.20;84.90;;;;;;10455666;28;20115;-60
2021/12/02 06:46:43;;;;;;;2.33;0.70;;;4.20;84.90;;;;;;10455869;28;20049;-61
2021/12/02 06:51:48;;;;;;;5.10;0.88;;;4.20;85.00;;;;;;10456207;28;20040;-61
2021/12/02 06:56:54;;;;;;;2.75;0.90;;;4.20;86.10;;;;;;10455916;28;20056;-60
2021/12/02 07:01:59;;;;;;;4.18;1.60;;;4.10;85.80;;;;;;10455914;28;20087;-61
2021/12/02 07:07:07;;;;;;;2.75;0.80;;;4.10;87.20;;;;;;10455773;28;20494;-61
2021/12/02 07:12:28;;;;;;;4.70;1.10;;;4.10;86.30;;;;;;10456074;28;20063;-61
2021/12/02 07:17:33;;;;;;;3.33;1.23;;;4.10;87.90;;;;;;10455590;28;20501;-61
2021/12/02 07:22:38;;;;;;;3.70;0.68;;;4.10;88.00;;;;;;10457180;28;20351;-61
2021/12/02 07:27:43;;;;;;;7.03;1.60;;;4.10;87.30;;;;;;10458045;28;20083;-61
2021/12/02 07:33:01;;;;;;;4.15;1.17;;;4.00;87.10;;;;;;10463091;28;20041;-61
2021/12/02 07:38:07;;;;;;;8.32;1.77;;;4.00;85.80;;;;;;10462883;28;20049;-61
2021/12/02 07:43:12;;;;;;;4.03;0.98;;;4.10;87.90;;;;;;10463187;28;20037;-61
2021/12/02 07:48:17;;;;;;;13.52;5.50;;;4.00;87.90;;;;;;10462330;28;20036;-61
2021/12/02 07:53:25;;;;;;;4.35;1.63;;;4.00;88.60;;;;;;10463344;28;20045;-61
2021/12/02 07:58:32;;;;;;;6.05;2.90;;;4.00;88.60;;;;;;10461519;28;20044;-60
2021/12/02 08:03:42;;;;;;;4.18;2.10;;;4.00;88.00;;;;;;10461644;28;20041;-60
2021/12/02 08:08:47;;;;;;;9.70;3.90;;;4.00;86.60;;;;;;10461582;28;20044;-60
2021/12/02 08:13:55;;;;;;;5.28;1.13;;;4.10;87.30;;;;;;10461389;28;20045;-61
2021/12/02 08:19:01;;;;;;;5.13;1.80;;;4.00;86.30;;;;;;10461458;28;20131;-61
2021/12/02 08:24:07;;;;;;;10.85;4.50;;;4.00;86.10;;;;;;10461156;28;20646;-61
2021/12/02 08:29:12;;;;;;;5.57;2.28;;;4.10;86.50;;;;;;10461120;28;20053;-61
2021/12/02 08:34:18;;;;;;;4.78;1.92;;;4.10;84.80;;;;;;10460667;28;20486;-61
2021/12/02 08:39:26;;;;;;;7.82;4.10;;;4.10;86.30;;;;;;10460516;28;20044;-61
2021/12/02 08:44:34;;;;;;;7.78;2.45;;;4.20;86.20;;;;;;10460366;28;20398;-61
2021/12/02 08:49:39;;;;;;;5.75;2.20;;;4.10;87.00;;;;;;10460129;28;20041;-61
2021/12/02 08:54:47;;;;;;;13.20;6.13;;;4.10;88.40;;;;;;10460377;28;20544;-60
2021/12/02 08:59:52;;;;;;;9.63;5.97;;;4.10;88.90;;;;;;10459259;28;20051;-61
2021/12/02 09:05:00;;;;;;;18.85;5.65;;;4.00;89.90;;;;;;10458782;28;20079;-61
2021/12/02 09:10:06;;;;;;;7.50;1.80;;;4.00;90.20;;;;;;10459167;28;20045;-61
2021/12/02 09:15:12;;;;;;;8.38;4.38;;;4.00;89.10;;;;;;10459371;28;20037;-61
2021/12/02 09:20:17;;;;;;;3.20;1.27;;;4.00;86.80;;;;;;10459363;28;20440;-61
2021/12/02 09:25:22;;;;;;;6.10;2.08;;;4.10;86.40;;;;;;10459164;28;20071;-61
2021/12/02 09:30:27;;;;;;;2.20;1.10;;;4.20;84.80;;;;;;10458423;28;20045;-61
2021/12/02 09:35:33;;;;;;;3.13;1.02;;;4.20;84.20;;;;;;10458885;28;20540;-61
2021/12/02 09:40:41;;;;;;;5.03;1.50;;;4.10;85.50;;;;;;10458267;28;20045;-61
2021/12/02 09:45:46;;;;;;;2.33;1.15;;;4.10;86.50;;;;;;10457907;28;20041;-61
2021/12/02 09:51:03;;;;;;;6.68;2.45;;;4.00;86.00;;;;;;10457010;28;20049;-61
2021/12/02 09:56:31;;;;;;;7.75;2.92;;;4.00;86.90;;;;;;10457525;28;20054;-61
2021/12/02 10:01:49;;;;;;;7.13;3.13;;;4.00;85.60;;;;;;10457454;28;20099;-61
2021/12/02 10:07:17;;;;;;;4.85;2.72;;;3.90;85.80;;;;;;10456221;28;20053;-61
2021/12/02 10:12:25;;;;;;;6.90;1.42;;;3.80;84.30;;;;;;10457098;28;20087;-61
2021/12/02 10:17:37;;;;;;;2.95;1.25;;;3.90;81.40;;;;;;10457189;28;20083;-61
2021/12/02 10:23:04;;;;;;;5.00;2.15;;;3.90;83.50;;;;;;10456049;28;20060;-62
2021/12/02 10:28:13;;;;;;;11.80;4.68;;;3.80;85.90;;;;;;10457460;28;20049;-61
2021/12/02 10:33:39;;;;;;;8.30;3.80;;;3.70;86.70;;;;;;10456487;28;20040;-61
2021/12/02 10:38:45;;;;;;;7.07;2.67;;;3.70;87.60;;;;;;10456950;28;20049;-61
2021/12/02 10:44:09;;;;;;;9.05;3.67;;;3.70;86.20;;;;;;10456350;28;20091;-61
2021/12/02 10:49:19;;;;;;;19.08;7.80;;;3.60;87.20;;;;;;10456743;28;20041;-61
2021/12/02 10:54:33;;;;;;;12.73;4.72;;;3.60;86.90;;;;;;10456135;28;20486;-61
2021/12/02 10:59:51;;;;;;;11.38;4.35;;;3.50;85.00;;;;;;10455999;28;20090;-61
2021/12/02 11:05:19;;;;;;;8.32;3.75;;;3.50;83.60;;;;;;10462357;28;20049;-61
2021/12/02 11:10:33;;;;;;;8.52;2.05;;;3.40;84.00;;;;;;10464586;28;20444;-61
2021/12/02 11:15:45;;;;;;;10.35;3.53;;;3.50;82.90;;;;;;10447466;28;20045;-61
2021/12/02 11:20:57;;;;;;;7.15;3.10;;;3.50;84.70;;;;;;10463489;28;20045;-61
2021/12/02 11:26:11;;;;;;;20.98;7.65;;;3.60;84.80;;;;;;10463386;28;20092;-61
2021/12/02 11:31:23;;;;;;;18.67;4.50;;;3.50;84.80;;;;;;10463145;28;20037;-61
2021/12/02 11:36:31;;;;;;;3.53;1.70;;;3.50;84.20;;;;;;10463034;28;20049;-61
2021/12/02 11:41:39;;;;;;;15.27;3.85;;;3.50;84.00;;;;;;10462365;28;20413;-61
2021/12/02 11:46:44;;;;;;;9.10;3.53;;;3.60;83.60;;;;;;10462544;28;20091;-61
2021/12/02 11:51:55;;;;;;;11.35;3.03;;;3.60;83.60;;;;;;10462352;28;20045;-61
2021/12/02 11:57:08;;;;;;;3.95;1.95;;;3.70;83.40;;;;;;10461576;28;20106;-61
2021/12/02 12:02:17;;;;;;;1.35;0.95;;;3.80;84.10;;;;;;10463650;28;20063;-61
2021/12/02 12:07:22;;;;;;;;;;;3.80;82.70;;;;;;10465725;28;20049;-61
2021/12/02 12:12:37;;;;;;;2.47;1.38;;;3.80;83.60;;;;;;10460730;28;19921;-61
2021/12/02 12:17:42;;;;;;;5.72;2.95;;;3.60;84.00;;;;;;10444001;28;20045;-61
2021/12/02 12:22:47;;;;;;;3.58;1.30;;;3.50;85.30;;;;;;10461198;28;20045;-61
2021/12/02 12:28:02;;;;;;;7.20;2.45;;;3.50;85.00;;;;;;10461552;28;20041;-61
2021/12/02 12:33:36;;;;;;;5.15;1.55;;;3.50;86.30;;;;;;10461149;28;20041;-61
2021/12/02 12:38:42;;;;;;;7.10;3.95;;;3.40;86.60;;;;;;10460954;28;20048;-61
2021/12/02 12:43:52;;;;;;;4.38;2.15;;;3.40;87.90;;;;;;10474370;28;20080;-61
2021/12/02 12:49:14;;;;;;;5.55;2.30;;;3.40;88.00;;;;;;10460174;28;20045;-61
2021/12/02 12:54:22;;;;;;;5.97;4.35;;;3.40;88.90;;;;;;10460071;28;20048;-61
2021/12/02 12:59:27;;;;;;;4.82;2.90;;;3.30;90.00;;;;;;10459774;28;20409;-61
2021/12/02 13:04:51;;;;;;;20.42;9.10;;;3.40;90.00;;;;;;10459473;28;20053;-61
2021/12/02 13:10:21;;;;;;;28.80;12.93;;;3.30;90.70;;;;;;10457435;28;20052;-61
2021/12/02 13:15:28;;;;;;;34.60;14.65;;;3.30;91.30;;;;;;10432843;28;20041;-61
2021/12/02 13:20:38;;;;;;;17.95;8.10;;;3.30;91.40;;;;;;10457112;28;20103;-61
2021/12/02 13:26:04;;;;;;;18.17;7.90;;;3.30;91.80;;;;;;10458283;28;20051;-61
2021/12/02 13:31:12;;;;;;;5.15;2.90;;;3.30;92.00;;;;;;10458557;28;20513;-60
2021/12/02 13:36:22;;;;;;;5.43;1.95;;;3.40;92.00;;;;;;10458296;28;20445;-60
2021/12/02 13:41:28;;;;;;;7.00;2.00;;;3.40;92.60;;;;;;10457962;28;20049;-60
2021/12/02 13:46:41;;;;;;;8.13;2.95;;;3.30;93.10;;;;;;10457981;28;20445;-60
2021/12/02 13:57:39;;;;;;;10.05;5.28;;;3.30;94.60;;;;;;10457022;28;20482;-61
2021/12/02 14:02:47;;;;;;;29.50;13.52;;;3.20;96.00;;;;;;10454338;28;20037;-60
2021/12/02 14:07:56;;;;;;;11.07;5.13;;;3.20;97.20;;;;;;10457407;28;20052;-61
2021/12/02 14:13:04;;;;;;;9.02;4.93;;;3.20;98.20;;;;;;10457141;28;20374;-60
2021/12/02 14:18:22;;;;;;;14.85;9.27;;;3.10;99.90;;;;;;10456956;28;20041;-60
2021/12/02 14:23:29;;;;;;;8.30;4.22;;;3.00;99.90;;;;;;10456786;28;20037;-60
2021/12/02 14:28:37;;;;;;;29.52;10.20;;;2.90;99.90;;;;;;10457007;28;20048;-60
2021/12/02 14:33:43;;;;;;;17.40;6.38;;;2.70;99.90;;;;;;10422537;28;20481;-60
2021/12/02 14:39:02;;;;;;;34.55;12.00;;;2.60;99.90;;;;;;10455848;28;20045;-60
2021/12/02 14:44:20;;;;;;;29.90;11.38;;;2.50;99.90;;;;;;10456279;28;20091;-60
2021/12/02 14:49:33;;;;;;;25.52;9.43;;;2.50;99.90;;;;;;10456168;28;20045;-60
2021/12/02 14:54:45;;;;;;;29.95;11.93;;;2.40;99.90;;;;;;10455809;28;20409;-60
2021/12/02 15:00:08;;;;;;;31.30;15.43;;;2.40;99.90;;;;;;10421659;28;20106;-60
2021/12/02 15:05:18;;;;;;;30.30;12.88;;;2.50;99.90;;;;;;10438466;28;20494;-61
2021/12/02 15:10:27;;;;;;;;;;;2.50;99.90;;;;;;10456132;28;20045;-60
2021/12/02 15:15:48;;;;;;;9.10;4.30;;;2.60;99.90;;;;;;10455257;28;19928;-60
2021/12/02 15:20:59;;;;;;;9.95;2.95;;;2.60;99.90;;;;;;10455018;28;20056;-60
2021/12/02 15:26:07;;;;;;;8.90;4.68;;;2.70;99.90;;;;;;10455497;28;20107;-60
2021/12/02 15:31:35;;;;;;;10.68;4.13;;;2.70;99.90;;;;;;10455487;28;20036;-60
2021/12/02 15:36:41;;;;;;;8.27;4.75;;;2.60;99.90;;;;;;10455284;28;20041;-60
2021/12/02 15:41:46;;;;;;;10.45;3.05;;;2.60;99.90;;;;;;10455142;28;20045;-60
2021/12/02 15:46:58;;;;;;;6.93;2.88;;;2.60;99.90;;;;;;10455038;28;20451;-61
2021/12/02 15:52:04;;;;;;;6.88;2.55;;;2.70;99.90;;;;;;10464000;28;20045;-61
2021/12/02 15:57:15;;;;;;;12.38;6.03;;;2.60;99.90;;;;;;10462020;28;20045;-61
2021/12/02 16:07:30;;;;;;;16.13;6.80;;;2.60;99.90;;;;;;10462549;28;20103;-61
2021/12/02 16:12:38;;;;;;;8.05;4.20;;;2.60;99.90;;;;;;10461895;28;20045;-61
2021/12/02 16:17:44;;;;;;;8.50;3.50;;;2.60;99.90;;;;;;10461436;28;20053;-60
2021/12/02 16:22:52;;;;;;;;;;;2.60;99.90;;;;;;10462075;28;20095;-60
2021/12/02 16:27:57;;;;;;;17.85;7.85;;;2.50;99.90;;;;;;10461036;28;19920;-60
2021/12/02 16:33:04;;;;;;;14.38;6.60;;;2.60;99.90;;;;;;10460858;28;20041;-60
2021/12/02 16:38:10;;;;;;;11.18;3.70;;;2.60;99.90;;;;;;10461975;28;20049;-60
2021/12/02 16:43:18;;;;;;;8.32;4.07;;;2.60;99.90;;;;;;10460545;28;20540;-60
2021/12/02 16:48:23;;;;;;;7.47;4.05;;;2.60;99.90;;;;;;10460206;28;20552;-60
2021/12/02 16:53:30;;;;;;;6.55;3.40;;;2.60;99.90;;;;;;10460064;28;20032;-60
2021/12/02 16:58:35;;;;;;;7.45;3.90;;;2.60;99.90;;;;;;10459458;28;20045;-61
2021/12/02 17:03:42;;;;;;;12.10;5.75;;;2.60;99.90;;;;;;10459045;28;20052;-61
2021/12/02 17:09:04;;;;;;;5.53;2.75;;;2.60;99.90;;;;;;10459392;28;20474;-60
2021/12/02 17:14:12;;;;;;;9.68;5.25;;;2.60;99.90;;;;;;10459191;28;20056;-60
2021/12/02 17:19:17;;;;;;;15.03;5.07;;;2.60;99.90;;;;;;10441944;28;20049;-60
2021/12/02 17:24:26;;;;;;;10.27;4.93;;;2.60;99.90;;;;;;10459084;28;20053;-60
2021/12/02 17:29:38;;;;;;;16.55;5.70;;;2.60;99.90;;;;;;10441706;28;20482;-60
2021/12/02 17:34:44;;;;;;;12.40;4.80;;;2.50;99.90;;;;;;10458325;28;20045;-60
2021/12/02 17:39:49;;;;;;;732.38;311.42;;;2.60;99.90;;;;;;10458297;28;20041;-60
2021/12/02 17:44:54;;;;;;;12.68;5.82;;;2.50;99.90;;;;;;10458692;28;20099;-60
2021/12/02 17:50:02;;;;;;;3.28;2.28;;;2.50;99.90;;;;;;10458031;28;20099;-60
2021/12/02 17:55:11;;;;;;;5.57;2.17;;;2.50;99.90;;;;;;10457229;28;20049;-60
2021/12/02 18:00:17;;;;;;;6.10;3.50;;;2.50;99.90;;;;;;10457460;28;20049;-60
2021/12/02 18:05:22;;;;;;;10.45;5.15;;;2.40;99.90;;;;;;10457868;28;20057;-61
2021/12/02 18:10:27;;;;;;;7.55;3.28;;;2.50;99.90;;;;;;10457172;28;20375;-60
2021/12/02 18:15:32;;;;;;;5.32;2.70;;;2.40;99.90;;;;;;10457202;28;20045;-60
2021/12/02 18:20:38;;;;;;;21.98;12.20;;;2.40;99.90;;;;;;10457618;28;20045;-60
2021/12/02 18:25:43;;;;;;;37.72;14.93;;;2.40;99.90;;;;;;10439481;28;20057;-60
2021/12/02 18:30:48;;;;;;;7.90;3.10;;;2.30;99.90;;;;;;10456483;28;20041;-60
2021/12/02 18:35:53;;;;;;;5.38;2.50;;;2.30;99.90;;;;;;10457686;28;20045;-60
2021/12/02 18:40:59;;;;;;;18.13;6.70;;;2.30;99.90;;;;;;10456006;28;20045;-60
2021/12/02 18:46:08;;;;;;;35.80;15.90;;;2.30;99.90;;;;;;10456320;28;20474;-60
2021/12/02 18:51:12;;;;;;;20.42;5.30;;;2.30;99.90;;;;;;10455579;28;20099;-60
2021/12/02 18:56:17;;;;;;;7.00;2.78;;;2.30;99.90;;;;;;10445108;28;20071;-60
2021/12/02 19:01:24;;;;;;;30.35;14.65;;;2.20;99.90;;;;;;10449818;28;20402;-60
2021/12/02 19:28:25;;;;;;;13.55;5.00;;;2.10;99.90;;;;;;10339520;28;20108;-60
2021/12/02 19:34:28;;;;;;;27.17;10.27;;;2.10;99.90;;;;;;10327173;28;20112;-60
2021/12/02 19:40:41;;;;;;;266.17;93.40;;;2.00;99.90;;;;;;10352031;28;20410;-60
2021/12/02 19:47:03;;;;;;;26.17;11.20;;;1.90;99.90;;;;;;10337900;28;20113;-60
2021/12/02 19:52:25;;;;;;;47.40;14.35;;;1.90;99.90;;;;;;10356767;28;20042;-60
2021/12/02 19:58:39;;;;;;;17.00;6.13;;;1.90;99.90;;;;;;10353726;28;20050;-60
2021/12/02 20:03:58;;;;;;;8.38;4.65;;;1.90;99.90;;;;;;10378831;28;20054;-60
2021/12/02 20:09:15;;;;;;;7.30;3.28;;;1.80;99.90;;;;;;10379265;28;20359;-60
2021/12/02 20:14:56;;;;;;;7.65;4.65;;;1.80;99.90;;;;;;10361444;28;20065;-60
2021/12/02 20:20:09;;;;;;;6.82;4.03;;;1.80;99.90;;;;;;10377400;28;20053;-60
2021/12/02 20:25:14;;;;;;;6.78;2.53;;;1.70;99.90;;;;;;10378133;28;20108;-60
2021/12/02 20:30:19;;;;;;;8.90;4.90;;;1.70;99.90;;;;;;10378030;28;20046;-60
2021/12/02 20:35:25;;;;;;;20.02;7.63;;;1.70;99.90;;;;;;10377476;28;20119;-60
2021/12/02 20:40:30;;;;;;;9.43;5.22;;;1.60;99.90;;;;;;10378828;28;20100;-60
2021/12/02 20:45:37;;;;;;;12.02;5.15;;;1.40;99.90;;;;;;10378783;28;20100;-60
2021/12/02 20:50:44;;;;;;;8.00;4.78;;;1.20;99.90;;;;;;10378131;28;20049;-60
2021/12/02 20:55:53;;;;;;;13.52;5.40;;;1.10;99.90;;;;;;10378480;28;20088;-60
2021/12/02 21:00:58;;;;;;;19.48;8.68;;;1.10;99.90;;;;;;10376366;28;20112;-60
2021/12/02 21:06:03;;;;;;;11.65;4.93;;;1.10;99.90;;;;;;10374080;28;20506;-60
2021/12/02 21:11:10;;;;;;;17.02;6.57;;;1.20;99.90;;;;;;10375717;28;20067;-60
2021/12/02 21:16:17;;;;;;;7.05;3.80;;;1.10;99.90;;;;;;10378005;28;20050;-60
2021/12/02 21:21:22;;;;;;;13.90;6.22;;;1.20;99.90;;;;;;10411289;28;20115;-59
2021/12/02 21:26:26;;;;;;;91.45;28.30;;;1.20;99.90;;;;;;10417410;28;20058;-60
2021/12/02 21:31:32;;;;;;;44.33;14.73;;;1.10;99.90;;;;;;10417307;28;20563;-60
2021/12/02 21:36:43;;;;;;;189.35;74.55;;;1.10;99.90;;;;;;10417936;28;20405;-60
2021/12/02 21:41:48;;;;;;;15.90;11.05;;;1.10;99.90;;;;;;10417206;28;20045;-60
2021/12/02 21:46:54;;;;;;;92.47;37.03;;;1.00;99.90;;;;;;10416600;28;20072;-61
2021/12/02 21:52:00;;;;;;;89.90;41.15;;;0.90;99.90;;;;;;10416673;28;20095;-60
2021/12/02 21:57:08;;;;;;;24.77;12.13;;;0.90;99.90;;;;;;10416623;28;20041;-60
2021/12/02 22:02:16;;;;;;;44.53;23.63;;;0.80;99.90;;;;;;10416375;28;20511;-60
2021/12/02 22:07:22;;;;;;;25.70;12.38;;;0.80;99.90;;;;;;10416963;28;20041;-59
2021/12/02 22:12:27;;;;;;;22.98;12.88;;;0.90;99.90;;;;;;10417053;28;20056;-60
2021/12/02 22:17:32;;;;;;;15.73;9.50;;;0.90;99.90;;;;;;10398346;28;20058;-60
2021/12/02 22:22:39;;;;;;;16.80;9.30;;;0.80;99.90;;;;;;10415884;28;20045;-59
2021/12/02 22:27:44;;;;;;;17.00;8.88;;;0.90;99.90;;;;;;10415732;28;20539;-59
2021/12/02 22:32:51;;;;;;;19.70;6.93;;;0.90;99.90;;;;;;10414780;28;20045;-60
2021/12/02 22:37:56;;;;;;;15.68;7.63;;;0.80;99.90;;;;;;10415301;28;20474;-60
2021/12/02 22:43:01;;;;;;;15.32;7.43;;;0.80;99.90;;;;;;10415395;28;20064;-60
2021/12/02 22:48:09;;;;;;;15.57;6.68;;;0.60;99.90;;;;;;10416023;28;20060;-60
2021/12/02 22:53:14;;;;;;;9.75;5.38;;;0.40;99.90;;;;;;10415058;28;20111;-59
2021/12/02 22:58:21;;;;;;;13.98;6.85;;;0.30;99.90;;;;;;10417296;28;20057;-59
2021/12/02 23:03:27;;;;;;;14.60;7.23;;;0.30;99.90;;;;;;10424180;28;20111;-60
2021/12/02 23:08:35;;;;;;;14.35;7.20;;;0.20;99.90;;;;;;10423755;28;20041;-60
2021/12/02 23:13:43;;;;;;;13.10;7.00;;;0.00;99.90;;;;;;10422540;28;20045;-60
2021/12/02 23:18:51;;;;;;;14.65;7.50;;;0.00;99.90;;;;;;10422171;28;20076;-59
2021/12/02 23:24:00;;;;;;;16.23;7.40;;;-0.10;99.90;;;;;;10422587;28;20041;-60
2021/12/02 23:29:07;;;;;;;12.82;7.15;;;-0.30;99.90;;;;;;10421818;28;20053;-60
2021/12/02 23:34:13;;;;;;;12.27;6.03;;;-0.40;99.90;;;;;;10422055;28;20099;-59
2021/12/02 23:39:19;;;;;;;15.40;5.88;;;-0.40;99.90;;;;;;10421946;28;20042;-59
2021/12/02 23:44:24;;;;;;;14.40;6.95;;;-0.50;99.90;;;;;;10421282;28;20050;-59
2021/12/02 23:49:29;;;;;;;11.48;6.00;;;-0.50;99.90;;;;;;10421537;28;20046;-59
2021/12/02 23:54:36;;;;;;;10.63;5.13;;;-0.40;99.90;;;;;;10421798;28;20045;-60
2021/12/02 23:59:44;;;;;;;13.05;5.57;;;-0.50;99.90;;;;;;10403777;28;20080;-59
